createdAt,value
2023-02-07T00:00:25.004Z,15.97
2023-02-07T00:02:52.041Z,18.00
2023-02-07T00:05:19.133Z,18.73
2023-02-07T00:07:46.056Z,14.63
2023-02-07T00:10:12.976Z,17.07
2023-02-07T00:12:40.022Z,15.00
2023-02-07T00:15:07.913Z,16.50
2023-02-07T00:17:34.791Z,17.13
2023-02-07T00:20:01.846Z,13.00
2023-02-07T00:22:28.942Z,15.03
2023-02-07T00:24:55.821Z,13.30
2023-02-07T00:27:22.966Z,13.20
2023-02-07T00:29:50.164Z,13.00
2023-02-07T00:32:20.416Z,12.90
2023-02-07T00:34:48.391Z,14.33
2023-02-07T00:37:15.267Z,14.37
2023-02-07T00:39:42.495Z,13.83
2023-02-07T00:42:09.481Z,14.67
2023-02-07T00:44:36.428Z,14.40
2023-02-07T00:47:03.320Z,13.53
2023-02-07T00:49:30.239Z,16.13
2023-02-07T00:51:57.092Z,14.73
2023-02-07T00:54:23.973Z,15.00
2023-02-07T00:56:50.861Z,15.50
2023-02-07T00:59:17.808Z,17.33
2023-02-07T01:01:44.737Z,16.10
2023-02-07T01:04:11.657Z,14.77
2023-02-07T01:06:38.596Z,15.20
2023-02-07T01:09:06.967Z,15.30
2023-02-07T01:11:33.911Z,17.27
2023-02-07T01:14:01.941Z,18.17
2023-02-07T01:16:32.605Z,17.00
2023-02-07T01:19:02.823Z,16.90
2023-02-07T01:21:29.785Z,16.50
2023-02-07T01:23:56.869Z,16.10
2023-02-07T01:26:25.322Z,17.30
2023-02-07T01:28:55.049Z,18.90
2023-02-07T01:31:23.273Z,17.43
2023-02-07T01:33:58.133Z,18.17
2023-02-07T01:36:25.824Z,19.03
2023-02-07T01:38:54.164Z,17.03
2023-02-07T01:41:22.634Z,19.73
2023-02-07T01:43:54.334Z,18.17
2023-02-07T01:46:21.353Z,18.40
2023-02-07T01:48:48.936Z,21.33
2023-02-07T01:51:16.760Z,20.13
2023-02-07T01:53:43.730Z,21.93
2023-02-07T01:56:22.707Z,27.80
2023-02-07T01:58:53.658Z,22.50
2023-02-07T02:01:25.221Z,23.83
2023-02-07T02:03:55.192Z,22.33
2023-02-07T02:06:25.634Z,23.50
2023-02-07T02:08:58.460Z,22.83
2023-02-07T02:12:21.361Z,24.00
2023-02-07T02:15:28.803Z,20.23
2023-02-07T02:18:40.193Z,23.90
2023-02-07T02:22:03.757Z,21.40
2023-02-07T02:25:31.713Z,21.63
2023-02-07T02:28:57.068Z,21.27
2023-02-07T02:32:12.451Z,23.90
2023-02-07T02:35:11.125Z,24.60
2023-02-07T02:37:54.228Z,23.90
2023-02-07T02:40:55.306Z,23.50
2023-02-07T02:43:46.937Z,27.80
2023-02-07T02:46:30.631Z,28.60
2023-02-07T02:48:59.201Z,28.77
2023-02-07T02:51:31.570Z,24.67
2023-02-07T02:54:00.089Z,27.03
2023-02-07T02:56:53.916Z,27.77
2023-02-07T02:59:49.195Z,27.17
2023-02-07T03:03:03.888Z,25.27
2023-02-07T03:05:54.097Z,29.47
2023-02-07T03:09:07.201Z,30.53
2023-02-07T03:11:42.127Z,30.00
2023-02-07T03:14:20.086Z,32.37
2023-02-07T03:16:59.304Z,27.60
2023-02-07T03:19:29.944Z,26.33
2023-02-07T03:22:10.445Z,28.50
2023-02-07T03:24:43.056Z,27.00
2023-02-07T03:27:13.684Z,28.83
2023-02-07T03:29:44.958Z,27.10
2023-02-07T03:32:14.809Z,26.23
2023-02-07T03:34:44.032Z,28.40
2023-02-07T03:37:16.794Z,28.17
2023-02-07T03:39:43.975Z,27.97
2023-02-07T03:42:21.851Z,27.17
2023-02-07T03:44:50.956Z,25.83
2023-02-07T03:47:19.470Z,32.53
2023-02-07T03:49:46.423Z,26.40
2023-02-07T03:52:13.309Z,26.57
2023-02-07T03:54:40.209Z,33.97
2023-02-07T03:57:07.121Z,34.03
2023-02-07T03:59:34.194Z,32.10
2023-02-07T04:02:02.293Z,36.67
2023-02-07T04:04:29.816Z,27.07
2023-02-07T04:06:56.760Z,26.20
2023-02-07T04:09:23.734Z,39.70
2023-02-07T04:11:51.808Z,35.73
2023-02-07T04:14:22.680Z,41.43
2023-02-07T04:16:50.288Z,44.93
2023-02-07T04:19:17.331Z,47.27
2023-02-07T04:21:44.238Z,40.07
2023-02-07T04:24:11.702Z,32.20
2023-02-07T04:26:38.851Z,36.40
2023-02-07T04:29:06.009Z,31.00
2023-02-07T04:31:35.822Z,30.60
2023-02-07T04:34:02.729Z,31.30
2023-02-07T04:36:32.281Z,32.40
2023-02-07T04:38:59.179Z,33.30
2023-02-07T04:41:26.096Z,36.60
2023-02-07T04:43:53.158Z,43.43
2023-02-07T04:46:21.196Z,42.70
2023-02-07T04:48:51.008Z,40.80
2023-02-07T04:51:17.893Z,39.83
2023-02-07T04:53:44.834Z,44.10
2023-02-07T04:56:11.783Z,44.60
2023-02-07T04:58:38.728Z,48.03
2023-02-07T05:01:05.716Z,40.37
2023-02-07T05:03:32.710Z,41.70
2023-02-07T05:05:59.653Z,35.60
2023-02-07T05:08:26.567Z,38.50
2023-02-07T05:10:55.327Z,41.53
2023-02-07T05:13:23.515Z,39.50
2023-02-07T05:15:51.342Z,35.43
2023-02-07T05:18:18.522Z,33.93
2023-02-07T05:20:45.427Z,33.80
2023-02-07T05:23:12.393Z,39.73
2023-02-07T05:25:42.359Z,41.87
2023-02-07T05:28:10.498Z,34.87
2023-02-07T05:30:40.937Z,34.50
2023-02-07T05:33:08.621Z,40.57
2023-02-07T05:35:38.120Z,44.43
2023-02-07T05:38:07.791Z,74.37
2023-02-07T05:40:36.086Z,61.77
2023-02-07T05:43:03.400Z,44.27
2023-02-07T05:45:30.520Z,47.87
2023-02-07T05:47:57.500Z,51.47
2023-02-07T05:50:25.086Z,43.80
2023-02-07T05:52:52.166Z,41.03
2023-02-07T05:55:19.467Z,39.20
2023-02-07T05:57:46.680Z,40.43
2023-02-07T06:00:16.654Z,39.47
2023-02-07T06:02:44.022Z,36.33
2023-02-07T06:05:16.893Z,38.63
2023-02-07T06:07:46.641Z,43.70
2023-02-07T06:10:14.954Z,46.07
2023-02-07T06:12:41.957Z,46.87
2023-02-07T06:15:09.598Z,53.10
2023-02-07T06:17:36.512Z,47.73
2023-02-07T06:20:04.082Z,47.97
2023-02-07T06:22:30.908Z,46.87
2023-02-07T06:24:57.800Z,47.53
2023-02-07T06:27:24.652Z,49.80
2023-02-07T06:29:51.704Z,42.80
2023-02-07T06:32:19.186Z,41.00
2023-02-07T06:34:46.122Z,43.63
2023-02-07T06:37:13.122Z,41.53
2023-02-07T06:39:40.172Z,45.40
2023-02-07T06:42:07.122Z,42.20
2023-02-07T06:44:33.992Z,41.30
2023-02-07T06:47:00.915Z,43.33
2023-02-07T06:49:27.781Z,46.37
2023-02-07T06:51:54.598Z,47.33
2023-02-07T06:54:21.617Z,51.17
2023-02-07T06:56:48.530Z,44.60
2023-02-07T06:59:15.581Z,38.73
2023-02-07T07:01:42.750Z,41.13
2023-02-07T07:04:09.923Z,38.83
2023-02-07T07:06:37.113Z,35.90
2023-02-07T07:09:05.065Z,38.80
2023-02-07T07:11:32.120Z,42.00
2023-02-07T07:14:00.490Z,50.67
2023-02-07T07:16:27.516Z,51.03
2023-02-07T07:18:54.494Z,48.53
2023-02-07T07:21:21.470Z,60.50
2023-02-07T07:23:48.387Z,60.13
2023-02-07T07:26:15.323Z,67.10
2023-02-07T07:28:42.217Z,57.70
2023-02-07T07:31:09.836Z,54.90
2023-02-07T07:33:37.505Z,46.47
2023-02-07T07:36:05.491Z,43.87
2023-02-07T07:38:33.284Z,38.93
2023-02-07T07:41:00.910Z,30.77
2023-02-07T07:43:28.920Z,26.87
2023-02-07T07:46:00.172Z,30.50
2023-02-07T07:48:28.066Z,25.50
2023-02-07T07:50:55.625Z,20.70
2023-02-07T07:53:22.622Z,20.20
2023-02-07T07:55:55.007Z,37.10
2023-02-07T07:58:23.345Z,16.70
2023-02-07T08:00:50.614Z,16.97
2023-02-07T08:03:19.525Z,19.73
2023-02-07T08:05:47.386Z,19.03
2023-02-07T08:08:15.354Z,17.20
2023-02-07T08:10:42.835Z,23.00
2023-02-07T08:13:09.959Z,15.80
2023-02-07T08:15:37.143Z,22.83
2023-02-07T08:18:04.273Z,14.13
2023-02-07T08:20:31.363Z,15.30
2023-02-07T08:22:59.089Z,13.27
2023-02-07T08:25:26.573Z,12.40
2023-02-07T08:27:54.642Z,13.53
2023-02-07T08:30:22.721Z,14.00
2023-02-07T08:33:01.048Z,10.90
2023-02-07T08:35:28.159Z,12.17
2023-02-07T08:37:58.451Z,12.37
2023-02-07T08:40:26.820Z,15.33
2023-02-07T08:42:53.881Z,13.40
2023-02-07T08:45:23.033Z,16.13
2023-02-07T08:47:49.979Z,10.70
2023-02-07T08:50:17.738Z,13.67
2023-02-07T08:52:45.165Z,10.43
2023-02-07T08:55:12.240Z,11.00
2023-02-07T08:57:39.295Z,9.73
2023-02-07T09:00:07.726Z,9.70
2023-02-07T09:02:35.413Z,11.03
2023-02-07T09:05:02.588Z,8.97
2023-02-07T09:07:29.672Z,11.57
2023-02-07T09:09:56.562Z,12.53
2023-02-07T09:12:23.582Z,10.20
2023-02-07T09:14:50.520Z,8.87
2023-02-07T09:17:17.413Z,14.47
2023-02-07T09:19:44.315Z,9.73
2023-02-07T09:22:11.191Z,10.73
2023-02-07T09:24:38.202Z,9.83
2023-02-07T09:27:05.072Z,10.57
2023-02-07T09:29:32.057Z,9.43
2023-02-07T09:31:59.617Z,10.33
2023-02-07T09:34:27.961Z,13.57
2023-02-07T09:36:55.074Z,9.53
2023-02-07T09:39:21.983Z,10.27
2023-02-07T09:42:17.941Z,9.97
2023-02-07T09:45:09.914Z,9.17
2023-02-07T09:47:41.538Z,9.53
2023-02-07T09:50:21.143Z,11.00
2023-02-07T09:53:00.082Z,9.83
2023-02-07T09:55:35.039Z,11.53
2023-02-07T09:58:14.721Z,8.30
2023-02-07T10:00:46.053Z,8.20
2023-02-07T10:03:20.753Z,7.40
2023-02-07T10:06:12.750Z,7.70
2023-02-07T10:08:47.709Z,6.70
2023-02-07T10:11:28.189Z,7.40
2023-02-07T10:14:22.333Z,10.33
2023-02-07T10:17:35.629Z,8.93
2023-02-07T10:20:32.061Z,6.67
2023-02-07T10:23:33.165Z,8.13
2023-02-07T10:26:39.179Z,6.33
2023-02-07T10:30:00.327Z,7.70
2023-02-07T10:32:39.566Z,6.40
2023-02-07T10:35:26.926Z,5.53
2023-02-07T10:37:57.121Z,5.80
2023-02-07T10:40:44.847Z,5.87
2023-02-07T10:43:21.515Z,6.60
2023-02-07T10:45:54.348Z,5.10
2023-02-07T10:48:28.423Z,6.10
2023-02-07T10:50:57.652Z,12.73
2023-02-07T10:54:04.553Z,7.20
2023-02-07T10:56:33.981Z,4.93
2023-02-07T10:59:00.899Z,5.10
2023-02-07T11:01:31.432Z,4.80
2023-02-07T11:03:58.758Z,4.60
2023-02-07T11:06:34.632Z,4.40
2023-02-07T11:09:13.226Z,5.90
2023-02-07T11:11:41.013Z,6.17
2023-02-07T11:14:15.533Z,6.40
2023-02-07T11:16:44.774Z,6.67
2023-02-07T11:19:19.043Z,8.67
2023-02-07T11:21:48.529Z,5.80
2023-02-07T11:24:31.266Z,6.57
2023-02-07T11:27:18.561Z,7.10
2023-02-07T11:30:04.407Z,7.13
2023-02-07T11:32:36.688Z,6.20
2023-02-07T11:35:09.695Z,5.93
2023-02-07T11:37:37.738Z,6.97
2023-02-07T11:40:42.432Z,15.43
2023-02-07T11:43:09.246Z,6.93
2023-02-07T11:45:38.737Z,6.07
2023-02-07T11:48:06.361Z,6.27
2023-02-07T11:50:40.231Z,5.97
2023-02-07T11:53:17.200Z,5.83
2023-02-07T11:55:44.341Z,5.63
2023-02-07T11:58:20.715Z,5.13
2023-02-07T12:00:48.503Z,6.57
2023-02-07T12:03:31.886Z,5.90
2023-02-07T12:06:02.695Z,5.53
2023-02-07T12:08:33.634Z,6.00
2023-02-07T12:11:10.852Z,6.30
2023-02-07T12:13:46.613Z,5.63
2023-02-07T12:16:21.876Z,6.17
2023-02-07T12:19:19.718Z,5.80
2023-02-07T12:22:21.087Z,6.40
2023-02-07T12:25:01.577Z,5.83
2023-02-07T12:27:37.125Z,4.80
2023-02-07T12:30:45.941Z,4.47
2023-02-07T12:33:35.763Z,5.40
2023-02-07T12:36:19.684Z,4.93
2023-02-07T12:39:22.625Z,4.83
2023-02-07T12:42:31.426Z,5.63
2023-02-07T12:45:00.932Z,6.20
2023-02-07T12:47:59.541Z,4.37
2023-02-07T12:50:44.936Z,5.20
2023-02-07T12:53:36.964Z,4.80
2023-02-07T12:56:42.303Z,3.90
2023-02-07T12:59:41.241Z,5.07
2023-02-07T13:05:58.831Z,5.30
2023-02-07T13:08:54.142Z,5.00
2023-02-07T13:12:02.484Z,4.83
2023-02-07T13:15:03.048Z,5.50
2023-02-07T13:17:47.870Z,5.70
2023-02-07T13:20:26.014Z,5.80
2023-02-07T13:22:59.146Z,10.77
2023-02-07T13:25:34.705Z,5.40
2023-02-07T13:28:26.850Z,4.73
2023-02-07T13:30:57.222Z,5.40
2023-02-07T13:33:45.581Z,4.93
2023-02-07T13:36:37.613Z,6.30
2023-02-07T13:39:32.060Z,5.70
2023-02-07T13:42:36.482Z,7.20
2023-02-07T13:45:55.896Z,5.90
2023-02-07T13:48:54.373Z,7.30
2023-02-07T13:51:43.540Z,7.67
2023-02-07T13:54:36.691Z,6.20
2023-02-07T13:57:22.892Z,6.10
2023-02-07T14:00:25.209Z,6.17
2023-02-07T14:03:00.863Z,6.47
2023-02-07T14:05:32.384Z,6.27
2023-02-07T14:08:22.321Z,6.13
2023-02-07T14:10:55.056Z,5.47
2023-02-07T14:13:39.805Z,5.90
2023-02-07T14:16:12.658Z,5.77
2023-02-07T14:18:48.739Z,5.33
2023-02-07T14:21:28.327Z,4.77
2023-02-07T14:24:05.081Z,5.53
2023-02-07T14:26:56.432Z,6.57
2023-02-07T14:29:56.996Z,5.17
2023-02-07T14:32:29.199Z,4.93
2023-02-07T14:35:03.123Z,4.80
2023-02-07T14:37:56.615Z,6.03
2023-02-07T14:41:10.526Z,6.23
2023-02-07T14:44:08.604Z,6.63
2023-02-07T14:46:47.195Z,5.93
2023-02-07T14:49:31.367Z,6.67
2023-02-07T14:52:11.633Z,6.70
2023-02-07T14:54:53.205Z,6.77
2023-02-07T14:57:50.038Z,9.10
2023-02-07T15:00:32.100Z,8.13
2023-02-07T15:03:06.194Z,8.27
2023-02-07T15:05:49.243Z,8.13
2023-02-07T15:08:22.143Z,9.33
2023-02-07T15:11:05.426Z,9.83
2023-02-07T15:13:42.135Z,9.90
2023-02-07T15:16:16.863Z,11.20
2023-02-07T15:18:52.140Z,9.10
2023-02-07T15:21:46.153Z,9.37
2023-02-07T15:24:51.003Z,10.20
2023-02-07T15:27:27.364Z,10.30
2023-02-07T15:30:04.215Z,10.47
2023-02-07T15:32:35.039Z,9.57
2023-02-07T15:35:39.405Z,11.70
2023-02-07T15:38:32.964Z,11.00
2023-02-07T15:41:00.089Z,10.63
2023-02-07T15:43:33.296Z,16.13
2023-02-07T15:46:05.320Z,13.47
2023-02-07T15:48:33.196Z,13.10
2023-02-07T15:51:04.002Z,11.40
2023-02-07T15:53:31.570Z,9.70
2023-02-07T15:55:59.341Z,9.70
2023-02-07T15:58:37.038Z,12.30
2023-02-07T16:01:32.481Z,11.03
2023-02-07T16:04:00.256Z,12.60
2023-02-07T16:06:28.999Z,10.60
2023-02-07T16:08:58.615Z,11.23
2023-02-07T16:11:43.708Z,10.83
2023-02-07T16:14:25.524Z,9.60
2023-02-07T16:16:57.277Z,18.90
2023-02-07T16:19:31.993Z,12.97
2023-02-07T16:22:27.022Z,14.57
2023-02-07T16:24:54.037Z,12.20
2023-02-07T16:27:30.343Z,12.43
2023-02-07T16:30:00.941Z,12.47
2023-02-07T16:32:32.736Z,10.63
2023-02-07T16:35:00.443Z,10.00
2023-02-07T16:37:28.363Z,14.50
2023-02-07T16:39:55.484Z,11.50
2023-02-07T16:42:22.742Z,17.00
2023-02-07T16:44:49.803Z,13.00
2023-02-07T16:47:18.111Z,14.90
2023-02-07T16:49:46.130Z,12.73
2023-02-07T16:52:13.363Z,11.83
2023-02-07T16:54:40.603Z,13.30
2023-02-07T16:57:07.590Z,14.47
2023-02-07T16:59:34.500Z,13.43
2023-02-07T17:02:01.506Z,16.20
2023-02-07T17:04:28.509Z,13.27
2023-02-07T17:06:55.538Z,22.17
2023-02-07T17:09:24.658Z,22.33
2023-02-07T17:11:53.116Z,14.90
2023-02-07T17:14:20.576Z,19.80
2023-02-07T17:16:48.302Z,23.87
2023-02-07T17:19:26.390Z,27.50
2023-02-07T17:21:53.396Z,33.60
2023-02-07T17:24:20.440Z,41.87
2023-02-07T17:26:50.961Z,33.20
2023-02-07T17:29:18.898Z,27.87
2023-02-07T17:31:56.396Z,20.70
2023-02-07T17:34:23.473Z,26.50
2023-02-07T17:36:51.366Z,23.43
2023-02-07T17:39:19.819Z,18.03
2023-02-07T17:41:47.006Z,23.33
2023-02-07T17:44:15.235Z,20.00
2023-02-07T17:46:42.369Z,20.80
2023-02-07T17:49:14.956Z,18.60
2023-02-07T17:51:42.143Z,20.27
2023-02-07T17:54:09.089Z,27.27
2023-02-07T17:56:37.480Z,25.40
2023-02-07T17:59:06.716Z,23.60
2023-02-07T18:01:34.177Z,28.53
2023-02-07T18:04:02.668Z,22.60
2023-02-07T18:06:30.522Z,19.87
2023-02-07T18:08:58.855Z,23.90
2023-02-07T18:11:26.954Z,22.00
2023-02-07T18:13:54.012Z,22.90
2023-02-07T18:16:23.756Z,23.40
2023-02-07T18:18:52.115Z,25.10
2023-02-07T18:21:19.768Z,32.73
2023-02-07T18:23:46.810Z,26.60
2023-02-07T18:26:15.735Z,26.63
2023-02-07T18:28:43.885Z,22.90
2023-02-07T18:31:29.495Z,21.20
2023-02-07T18:33:57.059Z,22.03
2023-02-07T18:36:26.789Z,23.60
2023-02-07T18:38:53.719Z,44.33
2023-02-07T18:41:23.585Z,36.07
2023-02-07T18:43:51.338Z,31.70
2023-02-07T18:46:20.263Z,26.23
2023-02-07T18:48:50.264Z,23.50
2023-02-07T18:51:19.293Z,28.03
2023-02-07T18:53:46.304Z,30.60
2023-02-07T18:56:16.868Z,42.20
2023-02-07T18:58:46.945Z,27.27
2023-02-07T19:01:19.515Z,41.57
2023-02-07T19:03:51.432Z,38.03
2023-02-07T19:06:18.662Z,30.40
2023-02-07T19:08:45.729Z,28.20
2023-02-07T19:11:12.741Z,31.97
2023-02-07T19:13:39.712Z,36.93
2023-02-07T19:16:09.482Z,33.80
2023-02-07T19:18:36.541Z,21.83
2023-02-07T19:21:12.460Z,24.50
2023-02-07T19:23:40.427Z,26.70
2023-02-07T19:26:08.709Z,33.67
2023-02-07T19:28:36.969Z,40.63
2023-02-07T19:31:10.210Z,34.53
2023-02-07T19:33:37.544Z,32.13
2023-02-07T19:36:10.059Z,26.53
2023-02-07T19:38:37.169Z,25.93
2023-02-07T19:41:05.254Z,32.63
2023-02-07T19:43:32.695Z,29.27
2023-02-07T19:45:59.582Z,30.90
2023-02-07T19:48:26.594Z,37.47
2023-02-07T19:51:05.677Z,36.20
2023-02-07T19:53:33.118Z,38.97
2023-02-07T19:56:02.512Z,41.83
2023-02-07T19:58:30.999Z,33.30
2023-02-07T20:00:58.111Z,37.33
2023-02-07T20:03:25.792Z,33.97
2023-02-07T20:05:53.203Z,73.23
2023-02-07T20:08:21.337Z,43.67
2023-02-07T20:10:48.599Z,34.67
2023-02-07T20:13:16.222Z,33.33
2023-02-07T20:15:47.203Z,37.00
2023-02-07T20:18:14.877Z,33.60
2023-02-07T20:20:44.443Z,34.17
2023-02-07T20:23:12.378Z,38.43
2023-02-07T20:25:40.310Z,32.43
2023-02-07T20:28:08.573Z,33.27
2023-02-07T20:30:37.380Z,45.53
2023-02-07T20:33:08.283Z,36.17
2023-02-07T20:35:37.820Z,38.97
2023-02-07T20:38:04.934Z,38.47
2023-02-07T20:40:32.534Z,44.10
2023-02-07T20:42:59.525Z,41.83
2023-02-07T20:45:26.501Z,44.90
2023-02-07T20:47:53.639Z,48.67
2023-02-07T20:50:20.678Z,42.57
2023-02-07T20:52:47.693Z,42.43
2023-02-07T20:55:14.603Z,43.60
2023-02-07T20:57:41.548Z,44.27
2023-02-07T21:00:09.565Z,42.83
2023-02-07T21:02:37.193Z,49.80
2023-02-07T21:05:04.356Z,43.93
2023-02-07T21:07:31.365Z,46.23
2023-02-07T21:09:58.289Z,46.97
2023-02-07T21:12:25.280Z,40.87
2023-02-07T21:14:52.348Z,45.80
2023-02-07T21:17:19.275Z,44.30
2023-02-07T21:19:46.192Z,49.20
2023-02-07T21:22:13.130Z,50.67
2023-02-07T21:24:40.243Z,59.60
2023-02-07T21:27:07.857Z,56.87
2023-02-07T21:29:36.519Z,55.17
2023-02-07T21:32:10.176Z,57.23
2023-02-07T21:34:37.559Z,58.10
2023-02-07T21:37:04.502Z,60.80
2023-02-07T21:39:31.443Z,57.30
2023-02-07T21:41:59.948Z,52.00
2023-02-07T21:44:49.950Z,53.90
2023-02-07T21:47:16.910Z,52.07
2023-02-07T21:49:44.933Z,50.90
2023-02-07T21:52:12.202Z,49.67
2023-02-07T21:54:39.113Z,44.67
2023-02-07T21:57:06.028Z,49.03
2023-02-07T21:59:32.916Z,47.40
2023-02-07T22:02:00.550Z,44.80
2023-02-07T22:04:28.776Z,42.23
2023-02-07T22:06:56.007Z,43.50
2023-02-07T22:09:23.612Z,40.13
2023-02-07T22:11:50.758Z,42.77
2023-02-07T22:14:18.314Z,41.87
2023-02-07T22:16:45.360Z,43.57
2023-02-07T22:19:14.239Z,45.43
2023-02-07T22:21:41.176Z,43.80
2023-02-07T22:24:08.527Z,41.63
2023-02-07T22:26:35.737Z,47.30
2023-02-07T22:29:04.629Z,42.03
2023-02-07T22:31:35.036Z,41.60
2023-02-07T22:34:13.254Z,66.80
2023-02-07T22:36:43.261Z,56.83
2023-02-07T22:39:13.600Z,63.73
2023-02-07T22:41:40.626Z,61.23
2023-02-07T22:44:07.568Z,44.57
2023-02-07T22:46:34.761Z,52.63
2023-02-07T22:49:01.669Z,47.60
2023-02-07T22:51:32.419Z,44.23
2023-02-07T22:54:04.999Z,42.83
2023-02-07T22:56:32.490Z,45.87
2023-02-07T22:58:59.512Z,46.27
2023-02-07T23:01:29.430Z,44.93
2023-02-07T23:03:57.044Z,45.10
2023-02-07T23:06:26.585Z,45.10
2023-02-07T23:08:54.130Z,43.30
2023-02-07T23:11:23.442Z,43.93
2023-02-07T23:13:52.072Z,41.77
2023-02-07T23:16:25.510Z,40.00
2023-02-07T23:18:56.489Z,43.70
2023-02-07T23:21:25.254Z,39.43
2023-02-07T23:23:52.876Z,37.70
2023-02-07T23:26:22.047Z,40.50
2023-02-07T23:28:49.193Z,43.33
2023-02-07T23:31:18.639Z,47.20
2023-02-07T23:33:45.850Z,47.67
2023-02-07T23:36:13.322Z,44.83
2023-02-07T23:38:40.737Z,47.27
2023-02-07T23:41:08.216Z,43.67
2023-02-07T23:43:36.384Z,40.93
2023-02-07T23:46:04.609Z,48.13
2023-02-07T23:48:34.169Z,50.60
2023-02-07T23:51:03.784Z,50.23
2023-02-07T23:53:31.413Z,51.43
2023-02-07T23:55:58.760Z,55.50
2023-02-07T23:58:27.449Z,45.53
